sensor_id;sensor_type;location;lat;lon;timestamp;noise_LAeq;noise_LA_min;noise_LA_max;noise_LA01;noise_LA95
43787;Laerm;29409;49.306;8.500;2023-03-17T00:00:45;40.19;36.91;43.63;;
43787;Laerm;29409;49.306;8.500;2023-03-17T00:01:46;39.99;36.20;42.88;;
43787;Laerm;29409;49.306;8.500;2023-03-17T00:02:54;40.24;36.69;43.54;;
43787;Laerm;29409;49.306;8.500;2023-03-17T00:03:58;39.92;35.36;42.93;;
43787;Laerm;29409;49.306;8.500;2023-03-17T00:04:58;39.09;35.36;41.96;;
43787;Laerm;29409;49.306;8.500;2023-03-17T00:05:59;39.06;35.94;42.88;;
43787;Laerm;29409;49.306;8.500;2023-03-17T00:07:00;42.40;37.52;48.60;;
43787;Laerm;29409;49.306;8.500;2023-03-17T00:08:10;41.68;38.21;45.57;;
43787;Laerm;29409;49.306;8.500;2023-03-17T00:09:13;40.23;37.12;42.59;;
43787;Laerm;29409;49.306;8.500;2023-03-17T00:10:18;39.94;36.45;42.35;;
43787;Laerm;29409;49.306;8.500;2023-03-17T00:11:19;39.37;35.66;41.89;;
43787;Laerm;29409;49.306;8.500;2023-03-17T00:12:20;39.92;35.94;43.44;;
43787;Laerm;29409;49.306;8.500;2023-03-17T00:13:20;41.13;38.05;43.24;;
43787;Laerm;29409;49.306;8.500;2023-03-17T00:14:22;39.83;36.20;42.59;;
43787;Laerm;29409;49.306;8.500;2023-03-17T00:15:24;39.32;35.66;41.68;;
43787;Laerm;29409;49.306;8.500;2023-03-17T00:16:26;39.20;35.59;41.96;;
43787;Laerm;29409;49.306;8.500;2023-03-17T00:17:27;38.84;34.69;42.35;;
43787;Laerm;29409;49.306;8.500;2023-03-17T00:18:28;39.23;34.31;42.65;;
43787;Laerm;29409;49.306;8.500;2023-03-17T00:19:34;39.24;34.69;42.98;;
43787;Laerm;29409;49.306;8.500;2023-03-17T00:20:35;39.67;36.20;43.14;;
43787;Laerm;29409;49.306;8.500;2023-03-17T00:21:36;39.62;35.36;42.47;;
43787;Laerm;29409;49.306;8.500;2023-03-17T00:22:36;38.89;35.36;42.16;;
43787;Laerm;29409;49.306;8.500;2023-03-17T00:23:37;39.51;36.45;42.03;;
43787;Laerm;29409;49.306;8.500;2023-03-17T00:24:37;39.74;35.36;47.26;;
43787;Laerm;29409;49.306;8.500;2023-03-17T00:25:38;38.78;34.69;41.06;;
43787;Laerm;29409;49.306;8.500;2023-03-17T00:26:42;39.17;35.66;42.16;;
43787;Laerm;29409;49.306;8.500;2023-03-17T00:27:42;39.15;35.36;42.03;;
43787;Laerm;29409;49.306;8.500;2023-03-17T00:28:43;39.15;35.94;43.09;;
43787;Laerm;29409;49.306;8.500;2023-03-17T00:29:43;39.08;34.69;41.89;;
43787;Laerm;29409;49.306;8.500;2023-03-17T00:30:44;40.67;36.20;45.11;;
43787;Laerm;29409;49.306;8.500;2023-03-17T00:31:46;39.80;36.20;46.55;;
43787;Laerm;29409;49.306;8.500;2023-03-17T00:32:50;40.53;35.94;44.23;;
43787;Laerm;29409;49.306;8.500;2023-03-17T00:33:52;42.66;38.52;50.45;;
43787;Laerm;29409;49.306;8.500;2023-03-17T00:34:53;40.42;37.12;43.68;;
43787;Laerm;29409;49.306;8.500;2023-03-17T00:35:53;40.50;36.91;43.90;;
43787;Laerm;29409;49.306;8.500;2023-03-17T00:36:54;39.85;36.69;43.44;;
43787;Laerm;29409;49.306;8.500;2023-03-17T00:37:57;39.93;36.69;42.82;;
43787;Laerm;29409;49.306;8.500;2023-03-17T00:38:58;39.63;36.45;42.24;;
43787;Laerm;29409;49.306;8.500;2023-03-17T00:39:58;39.16;34.69;42.35;;
43787;Laerm;29409;49.306;8.500;2023-03-17T00:41:00;38.92;35.04;42.29;;
43787;Laerm;29409;49.306;8.500;2023-03-17T00:42:00;39.22;36.20;42.93;;
43787;Laerm;29409;49.306;8.500;2023-03-17T00:43:01;38.97;35.36;44.97;;
43787;Laerm;29409;49.306;8.500;2023-03-17T00:44:04;38.94;35.04;45.04;;
43787;Laerm;29409;49.306;8.500;2023-03-17T00:45:04;38.70;35.04;41.06;;
43787;Laerm;29409;49.306;8.500;2023-03-17T00:46:38;39.05;35.31;41.46;;
43787;Laerm;29409;49.306;8.500;2023-03-17T00:47:34;39.28;35.04;42.53;;
43787;Laerm;29409;49.306;8.500;2023-03-17T00:48:35;39.61;35.36;42.53;;
43787;Laerm;29409;49.306;8.500;2023-03-17T00:49:36;39.53;36.20;42.53;;
43787;Laerm;29409;49.306;8.500;2023-03-17T00:50:36;39.29;35.04;42.03;;
43787;Laerm;29409;49.306;8.500;2023-03-17T00:51:37;39.68;35.94;43.77;;
43787;Laerm;29409;49.306;8.500;2023-03-17T00:52:38;39.69;34.69;46.15;;
43787;Laerm;29409;49.306;8.500;2023-03-17T00:53:39;39.58;36.45;41.82;;
43787;Laerm;29409;49.306;8.500;2023-03-17T00:54:40;39.38;36.45;42.82;;
43787;Laerm;29409;49.306;8.500;2023-03-17T00:55:41;39.25;35.66;43.04;;
43787;Laerm;29409;49.306;8.500;2023-03-17T00:56:42;39.13;35.04;43.54;;
43787;Laerm;29409;49.306;8.500;2023-03-17T00:57:43;39.16;35.04;43.39;;
43787;Laerm;29409;49.306;8.500;2023-03-17T00:58:43;38.78;34.31;42.03;;
43787;Laerm;29409;49.306;8.500;2023-03-17T00:59:44;38.95;33.90;42.22;;
43787;Laerm;29409;49.306;8.500;2023-03-17T01:00:45;38.97;35.36;41.46;;
43787;Laerm;29409;49.306;8.500;2023-03-17T01:01:47;39.53;35.04;47.15;;
43787;Laerm;29409;49.306;8.500;2023-03-17T01:02:48;39.54;35.94;44.76;;
43787;Laerm;29409;49.306;8.500;2023-03-17T01:03:48;39.21;35.66;41.89;;
43787;Laerm;29409;49.306;8.500;2023-03-17T01:04:49;39.37;33.90;44.65;;
43787;Laerm;29409;49.306;8.500;2023-03-17T01:05:49;38.94;35.36;41.30;;
43787;Laerm;29409;49.306;8.500;2023-03-17T01:06:50;39.22;35.04;42.65;;
43787;Laerm;29409;49.306;8.500;2023-03-17T01:07:52;39.27;35.94;42.03;;
43787;Laerm;29409;49.306;8.500;2023-03-17T01:08:53;39.87;35.94;42.71;;
43787;Laerm;29409;49.306;8.500;2023-03-17T01:09:54;39.26;35.59;42.09;;
43787;Laerm;29409;49.306;8.500;2023-03-17T01:10:54;39.36;35.04;43.14;;
43787;Laerm;29409;49.306;8.500;2023-03-17T01:11:55;39.90;35.94;42.82;;
43787;Laerm;29409;49.306;8.500;2023-03-17T01:12:56;39.62;35.36;43.94;;
43787;Laerm;29409;49.306;8.500;2023-03-17T01:14:00;39.83;34.69;44.35;;
43787;Laerm;29409;49.306;8.500;2023-03-17T01:15:01;39.63;35.36;42.53;;
43787;Laerm;29409;49.306;8.500;2023-03-17T01:16:01;39.82;35.04;44.27;;
43787;Laerm;29409;49.306;8.500;2023-03-17T01:17:02;38.82;35.94;41.30;;
43787;Laerm;29409;49.306;8.500;2023-03-17T01:18:03;38.88;35.66;42.29;;
43787;Laerm;29409;49.306;8.500;2023-03-17T01:19:03;40.11;36.20;42.93;;
43787;Laerm;29409;49.306;8.500;2023-03-17T01:20:05;39.29;33.90;45.63;;
43787;Laerm;29409;49.306;8.500;2023-03-17T01:21:06;38.92;35.04;42.53;;
43787;Laerm;29409;49.306;8.500;2023-03-17T01:22:07;38.91;34.69;43.81;;
43787;Laerm;29409;49.306;8.500;2023-03-17T01:23:08;38.96;35.04;43.37;;
43787;Laerm;29409;49.306;8.500;2023-03-17T01:24:09;38.85;34.69;43.49;;
43787;Laerm;29409;49.306;8.500;2023-03-17T01:25:09;39.14;34.69;43.19;;
43787;Laerm;29409;49.306;8.500;2023-03-17T01:26:11;39.03;35.36;42.65;;
43787;Laerm;29409;49.306;8.500;2023-03-17T01:27:11;38.75;35.36;42.71;;
43787;Laerm;29409;49.306;8.500;2023-03-17T01:28:12;38.58;34.69;41.46;;
43787;Laerm;29409;49.306;8.500;2023-03-17T01:29:13;38.92;34.69;44.39;;
43787;Laerm;29409;49.306;8.500;2023-03-17T01:30:24;38.71;34.31;41.89;;
43787;Laerm;29409;49.306;8.500;2023-03-17T01:31:27;39.97;35.94;43.09;;
43787;Laerm;29409;49.306;8.500;2023-03-17T01:32:27;40.33;37.17;48.15;;
43787;Laerm;29409;49.306;8.500;2023-03-17T01:33:29;40.28;36.20;44.15;;
43787;Laerm;29409;49.306;8.500;2023-03-17T01:34:30;40.11;35.36;43.14;;
43787;Laerm;29409;49.306;8.500;2023-03-17T01:35:31;39.75;36.77;42.35;;
43787;Laerm;29409;49.306;8.500;2023-03-17T01:36:32;40.26;36.10;43.09;;
43787;Laerm;29409;49.306;8.500;2023-03-17T01:37:33;39.65;36.20;48.29;;
43787;Laerm;29409;49.306;8.500;2023-03-17T01:38:33;40.22;36.20;47.54;;
43787;Laerm;29409;49.306;8.500;2023-03-17T01:39:34;39.68;34.69;44.47;;
43787;Laerm;29409;49.306;8.500;2023-03-17T01:40:36;39.47;35.66;42.16;;
43787;Laerm;29409;49.306;8.500;2023-03-17T01:41:37;39.33;35.94;41.46;;
43787;Laerm;29409;49.306;8.500;2023-03-17T01:42:39;40.00;35.36;48.98;;
43787;Laerm;29409;49.306;8.500;2023-03-17T01:43:42;39.22;35.04;42.65;;
43787;Laerm;29409;49.306;8.500;2023-03-17T01:44:56;39.41;35.04;43.19;;
43787;Laerm;29409;49.306;8.500;2023-03-17T01:47:16;39.67;33.90;46.45;;
43787;Laerm;29409;49.306;8.500;2023-03-17T01:48:16;39.74;35.04;42.65;;
43787;Laerm;29409;49.306;8.500;2023-03-17T01:50:22;39.58;35.36;46.87;;
43787;Laerm;29409;49.306;8.500;2023-03-17T01:51:28;39.94;36.45;47.44;;
43787;Laerm;29409;49.306;8.500;2023-03-17T01:52:31;40.22;35.36;47.79;;
43787;Laerm;29409;49.306;8.500;2023-03-17T01:53:35;39.27;35.94;42.53;;
43787;Laerm;29409;49.306;8.500;2023-03-17T01:55:55;40.99;37.32;47.42;;
43787;Laerm;29409;49.306;8.500;2023-03-17T01:56:58;41.95;36.20;45.57;;
43787;Laerm;29409;49.306;8.500;2023-03-17T01:58:01;40.16;34.69;49.62;;
43787;Laerm;29409;49.306;8.500;2023-03-17T01:59:02;39.97;36.45;49.83;;
43787;Laerm;29409;49.306;8.500;2023-03-17T02:00:06;41.57;37.53;46.84;;
43787;Laerm;29409;49.306;8.500;2023-03-17T02:01:08;40.71;36.91;52.61;;
43787;Laerm;29409;49.306;8.500;2023-03-17T02:02:10;40.27;35.66;51.09;;
43787;Laerm;29409;49.306;8.500;2023-03-17T02:03:13;40.69;35.66;57.36;;
43787;Laerm;29409;49.306;8.500;2023-03-17T02:04:15;40.37;36.20;43.44;;
43787;Laerm;29409;49.306;8.500;2023-03-17T02:05:19;40.30;35.94;43.94;;
43787;Laerm;29409;49.306;8.500;2023-03-17T02:06:20;40.20;35.94;49.33;;
43787;Laerm;29409;49.306;8.500;2023-03-17T02:07:21;40.22;35.66;45.07;;
43787;Laerm;29409;49.306;8.500;2023-03-17T02:08:22;40.08;36.91;47.42;;
43787;Laerm;29409;49.306;8.500;2023-03-17T02:09:22;39.57;35.36;44.38;;
43787;Laerm;29409;49.306;8.500;2023-03-17T02:10:24;39.87;36.45;42.76;;
43787;Laerm;29409;49.306;8.500;2023-03-17T02:11:25;40.28;36.20;43.29;;
43787;Laerm;29409;49.306;8.500;2023-03-17T02:12:26;39.63;36.20;42.71;;
43787;Laerm;29409;49.306;8.500;2023-03-17T02:13:28;39.64;36.20;41.96;;
43787;Laerm;29409;49.306;8.500;2023-03-17T02:14:29;40.14;37.12;42.16;;
43787;Laerm;29409;49.306;8.500;2023-03-17T02:15:40;41.29;37.88;43.72;;
43787;Laerm;29409;49.306;8.500;2023-03-17T02:16:42;41.54;38.05;45.66;;
43787;Laerm;29409;49.306;8.500;2023-03-17T02:17:43;41.19;37.70;45.30;;
43787;Laerm;29409;49.306;8.500;2023-03-17T02:18:44;39.30;35.36;42.71;;
43787;Laerm;29409;49.306;8.500;2023-03-17T02:19:44;39.71;36.20;42.98;;
43787;Laerm;29409;49.306;8.500;2023-03-17T02:21:49;39.52;36.20;42.65;;
43787;Laerm;29409;49.306;8.500;2023-03-17T02:22:51;40.01;36.45;43.94;;
43787;Laerm;29409;49.306;8.500;2023-03-17T02:23:52;41.73;38.37;45.07;;
43787;Laerm;29409;49.306;8.500;2023-03-17T02:24:56;41.58;37.88;45.97;;
43787;Laerm;29409;49.306;8.500;2023-03-17T02:25:57;41.17;37.32;44.69;;
43787;Laerm;29409;49.306;8.500;2023-03-17T02:27:00;39.81;35.04;42.71;;
43787;Laerm;29409;49.306;8.500;2023-03-17T02:28:35;39.70;35.66;43.05;;
43787;Laerm;29409;49.306;8.500;2023-03-17T02:29:32;39.81;36.69;42.41;;
43787;Laerm;29409;49.306;8.500;2023-03-17T02:30:34;40.21;36.20;44.15;;
43787;Laerm;29409;49.306;8.500;2023-03-17T02:31:35;40.84;36.20;48.52;;
43787;Laerm;29409;49.306;8.500;2023-03-17T02:32:36;39.82;35.94;44.54;;
43787;Laerm;29409;49.306;8.500;2023-03-17T02:33:36;39.17;35.66;41.61;;
43787;Laerm;29409;49.306;8.500;2023-03-17T02:34:37;40.44;36.91;43.09;;
43787;Laerm;29409;49.306;8.500;2023-03-17T02:35:37;41.13;36.20;45.75;;
43787;Laerm;29409;49.306;8.500;2023-03-17T02:36:38;40.04;36.69;45.39;;
43787;Laerm;29409;49.306;8.500;2023-03-17T02:37:38;39.43;36.20;42.82;;
43787;Laerm;29409;49.306;8.500;2023-03-17T02:38:39;43.92;35.36;58.02;;
43787;Laerm;29409;49.306;8.500;2023-03-17T02:39:39;39.69;35.66;42.47;;
43787;Laerm;29409;49.306;8.500;2023-03-17T02:40:40;39.66;36.20;42.98;;
43787;Laerm;29409;49.306;8.500;2023-03-17T02:41:40;40.09;36.20;42.59;;
43787;Laerm;29409;49.306;8.500;2023-03-17T02:42:40;40.94;36.45;43.86;;
43787;Laerm;29409;49.306;8.500;2023-03-17T02:43:41;40.10;36.45;45.23;;
43787;Laerm;29409;49.306;8.500;2023-03-17T02:44:41;41.22;37.12;49.13;;
43787;Laerm;29409;49.306;8.500;2023-03-17T02:45:44;40.80;37.32;43.63;;
43787;Laerm;29409;49.306;8.500;2023-03-17T02:46:44;40.15;36.45;43.58;;
43787;Laerm;29409;49.306;8.500;2023-03-17T02:47:45;39.95;36.69;43.68;;
43787;Laerm;29409;49.306;8.500;2023-03-17T02:48:46;40.44;36.91;43.14;;
43787;Laerm;29409;49.306;8.500;2023-03-17T02:49:47;40.52;37.12;46.82;;
43787;Laerm;29409;49.306;8.500;2023-03-17T02:50:48;40.33;36.91;43.34;;
43787;Laerm;29409;49.306;8.500;2023-03-17T02:51:48;40.41;36.69;47.30;;
43787;Laerm;29409;49.306;8.500;2023-03-17T02:52:49;40.38;36.91;43.34;;
43787;Laerm;29409;49.306;8.500;2023-03-17T02:53:50;40.40;36.69;44.39;;
43787;Laerm;29409;49.306;8.500;2023-03-17T02:54:50;42.79;36.45;55.05;;
43787;Laerm;29409;49.306;8.500;2023-03-17T02:55:51;40.66;36.20;45.17;;
43787;Laerm;29409;49.306;8.500;2023-03-17T02:56:51;40.29;36.69;45.91;;
43787;Laerm;29409;49.306;8.500;2023-03-17T02:57:52;40.06;36.56;44.76;;
43787;Laerm;29409;49.306;8.500;2023-03-17T02:58:53;39.56;35.66;44.87;;
43787;Laerm;29409;49.306;8.500;2023-03-17T02:59:53;40.18;35.36;50.43;;
43787;Laerm;29409;49.306;8.500;2023-03-17T03:00:54;40.66;36.69;44.23;;
43787;Laerm;29409;49.306;8.500;2023-03-17T03:01:55;42.29;38.05;45.11;;
43787;Laerm;29409;49.306;8.500;2023-03-17T03:02:56;42.29;36.91;45.01;;
43787;Laerm;29409;49.306;8.500;2023-03-17T03:03:56;41.51;38.05;45.75;;
43787;Laerm;29409;49.306;8.500;2023-03-17T03:04:57;41.20;38.37;43.99;;
43787;Laerm;29409;49.306;8.500;2023-03-17T03:05:59;41.20;37.12;44.86;;
43787;Laerm;29409;49.306;8.500;2023-03-17T03:07:00;40.94;36.91;44.87;;
43787;Laerm;29409;49.306;8.500;2023-03-17T03:08:00;40.93;37.70;43.34;;
43787;Laerm;29409;49.306;8.500;2023-03-17T03:09:01;40.75;37.52;49.28;;
43787;Laerm;29409;49.306;8.500;2023-03-17T03:10:02;40.44;36.45;43.39;;
43787;Laerm;29409;49.306;8.500;2023-03-17T03:11:03;40.52;36.91;42.88;;
43787;Laerm;29409;49.306;8.500;2023-03-17T03:12:04;40.55;37.88;43.54;;
43787;Laerm;29409;49.306;8.500;2023-03-17T03:13:05;40.59;38.05;43.19;;
43787;Laerm;29409;49.306;8.500;2023-03-17T03:14:05;40.73;37.12;44.19;;
43787;Laerm;29409;49.306;8.500;2023-03-17T03:15:07;40.65;38.05;43.86;;
43787;Laerm;29409;49.306;8.500;2023-03-17T03:16:08;40.90;34.69;47.38;;
43787;Laerm;29409;49.306;8.500;2023-03-17T03:17:09;41.69;38.67;45.20;;
43787;Laerm;29409;49.306;8.500;2023-03-17T03:18:09;40.72;37.32;43.04;;
43787;Laerm;29409;49.306;8.500;2023-03-17T03:19:11;40.59;36.91;43.90;;
43787;Laerm;29409;49.306;8.500;2023-03-17T03:20:12;40.88;37.52;43.04;;
43787;Laerm;29409;49.306;8.500;2023-03-17T03:21:13;41.36;37.52;44.19;;
43787;Laerm;29409;49.306;8.500;2023-03-17T03:22:14;41.16;38.21;44.69;;
43787;Laerm;29409;49.306;8.500;2023-03-17T03:23:14;41.26;38.21;44.42;;
43787;Laerm;29409;49.306;8.500;2023-03-17T03:24:15;40.96;37.52;43.19;;
43787;Laerm;29409;49.306;8.500;2023-03-17T03:25:15;41.29;38.05;48.21;;
43787;Laerm;29409;49.306;8.500;2023-03-17T03:26:16;41.29;38.21;44.62;;
43787;Laerm;29409;49.306;8.500;2023-03-17T03:27:16;40.79;37.88;45.01;;
43787;Laerm;29409;49.306;8.500;2023-03-17T03:28:17;40.15;37.52;43.04;;
43787;Laerm;29409;49.306;8.500;2023-03-17T03:29:18;40.48;37.70;42.71;;
43787;Laerm;29409;49.306;8.500;2023-03-17T03:30:18;41.15;37.88;47.14;;
43787;Laerm;29409;49.306;8.500;2023-03-17T03:31:19;40.66;37.12;46.45;;
43787;Laerm;29409;49.306;8.500;2023-03-17T03:32:20;41.10;37.52;44.58;;
43787;Laerm;29409;49.306;8.500;2023-03-17T03:33:20;41.67;38.52;44.43;;
43787;Laerm;29409;49.306;8.500;2023-03-17T03:34:21;40.88;37.52;43.99;;
43787;Laerm;29409;49.306;8.500;2023-03-17T03:35:21;41.67;37.12;65.27;;
43787;Laerm;29409;49.306;8.500;2023-03-17T03:36:21;41.46;38.37;45.23;;
43787;Laerm;29409;49.306;8.500;2023-03-17T03:37:23;41.85;37.88;45.83;;
43787;Laerm;29409;49.306;8.500;2023-03-17T03:38:25;41.54;37.88;44.69;;
43787;Laerm;29409;49.306;8.500;2023-03-17T03:39:26;41.41;38.67;44.87;;
43787;Laerm;29409;49.306;8.500;2023-03-17T03:40:26;41.20;37.70;46.66;;
43787;Laerm;29409;49.306;8.500;2023-03-17T03:41:27;41.63;38.81;43.63;;
43787;Laerm;29409;49.306;8.500;2023-03-17T03:42:28;41.71;37.88;44.65;;
43787;Laerm;29409;49.306;8.500;2023-03-17T03:43:28;42.35;39.08;46.02;;
43787;Laerm;29409;49.306;8.500;2023-03-17T03:44:28;41.93;39.46;44.59;;
43787;Laerm;29409;49.306;8.500;2023-03-17T03:45:29;42.52;38.05;46.89;;
43787;Laerm;29409;49.306;8.500;2023-03-17T03:46:30;41.87;38.37;47.67;;
43787;Laerm;29409;49.306;8.500;2023-03-17T03:47:30;41.79;39.34;44.35;;
43787;Laerm;29409;49.306;8.500;2023-03-17T03:48:30;41.29;38.21;44.65;;
43787;Laerm;29409;49.306;8.500;2023-03-17T03:49:31;41.31;38.05;48.40;;
43787;Laerm;29409;49.306;8.500;2023-03-17T03:50:31;41.54;38.67;45.33;;
43787;Laerm;29409;49.306;8.500;2023-03-17T03:51:32;41.05;37.12;49.36;;
43787;Laerm;29409;49.306;8.500;2023-03-17T03:52:32;41.34;38.21;44.39;;
43787;Laerm;29409;49.306;8.500;2023-03-17T03:53:32;41.15;38.21;43.77;;
43787;Laerm;29409;49.306;8.500;2023-03-17T03:54:33;41.19;38.21;44.31;;
43787;Laerm;29409;49.306;8.500;2023-03-17T03:55:34;41.86;38.67;51.73;;
43787;Laerm;29409;49.306;8.500;2023-03-17T03:56:34;41.50;38.95;44.27;;
43787;Laerm;29409;49.306;8.500;2023-03-17T03:57:34;42.35;37.88;48.23;;
43787;Laerm;29409;49.306;8.500;2023-03-17T03:58:35;42.34;38.21;47.74;;
43787;Laerm;29409;49.306;8.500;2023-03-17T03:59:35;41.48;37.52;56.82;;
43787;Laerm;29409;49.306;8.500;2023-03-17T04:00:36;42.32;37.88;46.28;;
43787;Laerm;29409;49.306;8.500;2023-03-17T04:01:36;41.32;38.21;47.12;;
43787;Laerm;29409;49.306;8.500;2023-03-17T04:02:37;40.97;38.21;43.04;;
43787;Laerm;29409;49.306;8.500;2023-03-17T04:03:38;41.14;38.05;43.90;;
43787;Laerm;29409;49.306;8.500;2023-03-17T04:04:38;41.27;38.21;43.58;;
43787;Laerm;29409;49.306;8.500;2023-03-17T04:05:38;42.12;38.05;50.43;;
43787;Laerm;29409;49.306;8.500;2023-03-17T04:06:39;42.02;38.37;46.71;;
43787;Laerm;29409;49.306;8.500;2023-03-17T04:07:40;42.21;39.46;46.43;;
43787;Laerm;29409;49.306;8.500;2023-03-17T04:08:41;41.75;39.21;44.31;;
43787;Laerm;29409;49.306;8.500;2023-03-17T04:09:42;42.16;38.02;44.87;;
43787;Laerm;29409;49.306;8.500;2023-03-17T04:10:42;42.96;38.95;46.59;;
43787;Laerm;29409;49.306;8.500;2023-03-17T04:11:43;41.75;39.08;44.39;;
43787;Laerm;29409;49.306;8.500;2023-03-17T04:12:43;42.47;38.52;45.51;;
43787;Laerm;29409;49.306;8.500;2023-03-17T04:13:44;42.63;39.58;47.65;;
43787;Laerm;29409;49.306;8.500;2023-03-17T04:14:45;41.37;37.70;44.69;;
43787;Laerm;29409;49.306;8.500;2023-03-17T04:15:47;44.93;39.21;62.22;;
43787;Laerm;29409;49.306;8.500;2023-03-17T04:16:47;42.77;39.92;48.37;;
43787;Laerm;29409;49.306;8.500;2023-03-17T04:17:47;41.94;38.95;44.83;;
43787;Laerm;29409;49.306;8.500;2023-03-17T04:18:48;42.51;38.21;46.52;;
43787;Laerm;29409;49.306;8.500;2023-03-17T04:19:48;42.99;40.13;45.33;;
43787;Laerm;29409;49.306;8.500;2023-03-17T04:20:49;42.25;38.95;47.88;;
43787;Laerm;29409;49.306;8.500;2023-03-17T04:21:49;42.08;38.21;45.17;;
43787;Laerm;29409;49.306;8.500;2023-03-17T04:22:50;41.75;38.52;44.62;;
43787;Laerm;29409;49.306;8.500;2023-03-17T04:23:51;41.71;38.52;46.82;;
43787;Laerm;29409;49.306;8.500;2023-03-17T04:24:51;41.27;36.45;46.10;;
43787;Laerm;29409;49.306;8.500;2023-03-17T04:25:52;42.11;39.21;46.57;;
43787;Laerm;29409;49.306;8.500;2023-03-17T04:26:53;44.66;40.71;52.84;;
43787;Laerm;29409;49.306;8.500;2023-03-17T04:27:53;44.11;39.81;52.37;;
43787;Laerm;29409;49.306;8.500;2023-03-17T04:28:53;42.68;39.70;45.93;;
43787;Laerm;29409;49.306;8.500;2023-03-17T04:29:54;41.63;38.67;46.52;;
43787;Laerm;29409;49.306;8.500;2023-03-17T04:30:55;41.76;38.95;45.20;;
43787;Laerm;29409;49.306;8.500;2023-03-17T04:31:55;42.02;39.08;44.07;;
43787;Laerm;29409;49.306;8.500;2023-03-17T04:32:55;42.54;37.70;46.28;;
43787;Laerm;29409;49.306;8.500;2023-03-17T04:33:56;41.89;38.52;43.86;;
43787;Laerm;29409;49.306;8.500;2023-03-17T04:34:56;42.08;38.67;45.17;;
43787;Laerm;29409;49.306;8.500;2023-03-17T04:35:57;42.63;38.21;47.85;;
43787;Laerm;29409;49.306;8.500;2023-03-17T04:36:57;42.60;38.37;48.00;;
43787;Laerm;29409;49.306;8.500;2023-03-17T04:37:58;42.87;40.33;46.93;;
43787;Laerm;29409;49.306;8.500;2023-03-17T04:38:58;43.08;40.13;49.49;;
43787;Laerm;29409;49.306;8.500;2023-03-17T04:39:58;42.62;39.46;48.88;;
43787;Laerm;29409;49.306;8.500;2023-03-17T04:40:59;42.95;39.58;49.32;;
43787;Laerm;29409;49.306;8.500;2023-03-17T04:41:59;41.84;39.21;44.90;;
43787;Laerm;29409;49.306;8.500;2023-03-17T04:43:00;43.95;39.34;50.06;;
43787;Laerm;29409;49.306;8.500;2023-03-17T04:44:01;42.73;40.23;45.86;;
43787;Laerm;29409;49.306;8.500;2023-03-17T04:45:02;42.81;39.23;46.20;;
43787;Laerm;29409;49.306;8.500;2023-03-17T04:46:02;41.97;39.11;45.42;;
43787;Laerm;29409;49.306;8.500;2023-03-17T04:47:03;45.40;39.92;55.02;;
43787;Laerm;29409;49.306;8.500;2023-03-17T04:48:03;42.48;38.95;46.59;;
43787;Laerm;29409;49.306;8.500;2023-03-17T04:49:04;43.66;40.62;48.97;;
43787;Laerm;29409;49.306;8.500;2023-03-17T04:50:04;42.85;39.58;47.95;;
43787;Laerm;29409;49.306;8.500;2023-03-17T04:51:07;42.17;38.95;44.54;;
43787;Laerm;29409;49.306;8.500;2023-03-17T04:52:07;43.30;39.58;50.29;;
43787;Laerm;29409;49.306;8.500;2023-03-17T04:53:09;42.28;38.95;45.60;;
43787;Laerm;29409;49.306;8.500;2023-03-17T04:54:09;41.88;38.67;43.99;;
43787;Laerm;29409;49.306;8.500;2023-03-17T04:55:10;42.74;39.92;46.38;;
43787;Laerm;29409;49.306;8.500;2023-03-17T04:56:11;42.90;38.05;47.22;;
43787;Laerm;29409;49.306;8.500;2023-03-17T04:57:11;43.15;39.81;49.04;;
43787;Laerm;29409;49.306;8.500;2023-03-17T04:58:11;49.56;40.13;65.69;;
43787;Laerm;29409;49.306;8.500;2023-03-17T04:59:12;44.22;40.53;48.91;;
43787;Laerm;29409;49.306;8.500;2023-03-17T05:00:13;43.17;40.03;45.72;;
43787;Laerm;29409;49.306;8.500;2023-03-17T05:01:15;42.03;39.58;44.23;;
43787;Laerm;29409;49.306;8.500;2023-03-17T05:02:15;43.71;40.53;51.87;;
43787;Laerm;29409;49.306;8.500;2023-03-17T05:03:17;42.86;39.81;46.71;;
43787;Laerm;29409;49.306;8.500;2023-03-17T05:04:19;43.38;39.92;52.35;;
43787;Laerm;29409;49.306;8.500;2023-03-17T05:05:19;42.18;39.70;45.36;;
43787;Laerm;29409;49.306;8.500;2023-03-17T05:06:20;42.09;39.46;46.05;;
43787;Laerm;29409;49.306;8.500;2023-03-17T05:07:20;42.69;39.92;51.92;;
43787;Laerm;29409;49.306;8.500;2023-03-17T05:08:21;42.47;40.03;45.60;;
43787;Laerm;29409;49.306;8.500;2023-03-17T05:09:21;43.02;40.71;48.63;;
43787;Laerm;29409;49.306;8.500;2023-03-17T05:10:22;42.46;40.13;45.51;;
43787;Laerm;29409;49.306;8.500;2023-03-17T05:11:22;42.46;39.58;45.17;;
43787;Laerm;29409;49.306;8.500;2023-03-17T05:12:23;41.96;38.74;48.42;;
43787;Laerm;29409;49.306;8.500;2023-03-17T05:13:24;42.88;39.92;45.60;;
43787;Laerm;29409;49.306;8.500;2023-03-17T05:14:24;44.43;39.92;55.77;;
43787;Laerm;29409;49.306;8.500;2023-03-17T05:15:25;43.30;40.13;48.52;;
43787;Laerm;29409;49.306;8.500;2023-03-17T05:16:25;42.63;40.13;48.34;;
43787;Laerm;29409;49.306;8.500;2023-03-17T05:17:25;43.16;39.34;49.65;;
43787;Laerm;29409;49.306;8.500;2023-03-17T05:18:26;43.10;40.13;49.39;;
43787;Laerm;29409;49.306;8.500;2023-03-17T05:19:27;42.40;40.23;44.94;;
43787;Laerm;29409;49.306;8.500;2023-03-17T05:20:28;42.76;40.13;48.28;;
43787;Laerm;29409;49.306;8.500;2023-03-17T05:21:28;42.05;39.46;46.57;;
43787;Laerm;29409;49.306;8.500;2023-03-17T05:22:29;42.61;40.13;46.91;;
43787;Laerm;29409;49.306;8.500;2023-03-17T05:23:34;43.24;40.53;47.18;;
43787;Laerm;29409;49.306;8.500;2023-03-17T05:24:39;42.69;40.13;46.23;;
43787;Laerm;29409;49.306;8.500;2023-03-17T05:25:39;43.97;40.98;54.80;;
43787;Laerm;29409;49.306;8.500;2023-03-17T05:26:42;43.84;41.30;53.06;;
43787;Laerm;29409;49.306;8.500;2023-03-17T05:27:58;43.45;40.80;48.03;;
43787;Laerm;29409;49.306;8.500;2023-03-17T05:29:05;43.27;40.62;48.02;;
43787;Laerm;29409;49.306;8.500;2023-03-17T05:30:06;43.33;40.89;49.33;;
43787;Laerm;29409;49.306;8.500;2023-03-17T05:31:07;46.07;40.62;58.33;;
43787;Laerm;29409;49.306;8.500;2023-03-17T05:32:08;43.63;41.30;48.21;;
43787;Laerm;29409;49.306;8.500;2023-03-17T05:33:08;43.52;41.14;48.55;;
43787;Laerm;29409;49.306;8.500;2023-03-17T05:34:09;43.59;41.68;47.16;;
43787;Laerm;29409;49.306;8.500;2023-03-17T05:35:09;43.64;41.06;47.18;;
43787;Laerm;29409;49.306;8.500;2023-03-17T05:36:09;43.58;41.38;47.24;;
43787;Laerm;29409;49.306;8.500;2023-03-17T05:37:10;44.80;42.93;48.92;;
43787;Laerm;29409;49.306;8.500;2023-03-17T05:38:11;47.31;42.65;56.21;;
43787;Laerm;29409;49.306;8.500;2023-03-17T05:39:12;44.97;41.96;50.26;;
43787;Laerm;29409;49.306;8.500;2023-03-17T05:40:12;44.36;41.82;49.60;;
43787;Laerm;29409;49.306;8.500;2023-03-17T05:41:13;43.86;41.38;47.20;;
43787;Laerm;29409;49.306;8.500;2023-03-17T05:42:14;44.01;41.14;53.14;;
43787;Laerm;29409;49.306;8.500;2023-03-17T05:43:15;44.26;41.53;50.90;;
43787;Laerm;29409;49.306;8.500;2023-03-17T05:44:16;44.21;41.19;53.16;;
43787;Laerm;29409;49.306;8.500;2023-03-17T05:45:16;43.84;40.98;49.62;;
43787;Laerm;29409;49.306;8.500;2023-03-17T05:46:17;44.25;41.89;49.51;;
43787;Laerm;29409;49.306;8.500;2023-03-17T05:47:18;45.50;41.22;52.71;;
43787;Laerm;29409;49.306;8.500;2023-03-17T05:48:19;44.50;41.89;49.44;;